sensor_id;sensor_type;location;lat;lon;timestamp;P1;durP1;ratioP1;P2;durP2;ratioP2
16975;SDS011;8604;48.148;-1.786;2023-07-31T00:00:17;17.23;;;6.53;;
16975;SDS011;8604;48.148;-1.786;2023-07-31T00:02:45;19.90;;;7.50;;
16975;SDS011;8604;48.148;-1.786;2023-07-31T00:05:15;15.57;;;6.63;;
16975;SDS011;8604;48.148;-1.786;2023-07-31T00:07:43;16.73;;;6.50;;
16975;SDS011;8604;48.148;-1.786;2023-07-31T00:10:12;17.20;;;6.53;;
16975;SDS011;8604;48.148;-1.786;2023-07-31T00:12:40;15.47;;;6.50;;
16975;SDS011;8604;48.148;-1.786;2023-07-31T00:15:09;15.47;;;6.97;;
16975;SDS011;8604;48.148;-1.786;2023-07-31T00:17:40;16.57;;;6.60;;
16975;SDS011;8604;48.148;-1.786;2023-07-31T00:20:08;16.37;;;6.67;;
16975;SDS011;8604;48.148;-1.786;2023-07-31T00:22:37;17.03;;;7.13;;
16975;SDS011;8604;48.148;-1.786;2023-07-31T00:25:06;15.80;;;7.00;;
16975;SDS011;8604;48.148;-1.786;2023-07-31T00:27:34;16.43;;;6.77;;
16975;SDS011;8604;48.148;-1.786;2023-07-31T00:30:04;17.43;;;6.70;;
16975;SDS011;8604;48.148;-1.786;2023-07-31T00:32:33;15.03;;;6.73;;
16975;SDS011;8604;48.148;-1.786;2023-07-31T00:35:03;21.03;;;7.00;;
16975;SDS011;8604;48.148;-1.786;2023-07-31T00:37:32;16.10;;;6.83;;
16975;SDS011;8604;48.148;-1.786;2023-07-31T00:40:01;15.60;;;7.03;;
16975;SDS011;8604;48.148;-1.786;2023-07-31T00:42:30;16.83;;;6.70;;
16975;SDS011;8604;48.148;-1.786;2023-07-31T00:44:59;17.20;;;6.80;;
16975;SDS011;8604;48.148;-1.786;2023-07-31T00:47:28;16.77;;;7.13;;
16975;SDS011;8604;48.148;-1.786;2023-07-31T00:49:57;21.17;;;6.93;;
16975;SDS011;8604;48.148;-1.786;2023-07-31T00:52:27;13.80;;;6.53;;
16975;SDS011;8604;48.148;-1.786;2023-07-31T00:54:55;17.77;;;7.10;;
16975;SDS011;8604;48.148;-1.786;2023-07-31T00:57:24;16.60;;;6.87;;
16975;SDS011;8604;48.148;-1.786;2023-07-31T00:59:53;17.20;;;7.00;;
16975;SDS011;8604;48.148;-1.786;2023-07-31T01:02:21;17.60;;;6.93;;
16975;SDS011;8604;48.148;-1.786;2023-07-31T01:04:51;16.17;;;6.47;;
16975;SDS011;8604;48.148;-1.786;2023-07-31T01:07:21;18.50;;;7.30;;
16975;SDS011;8604;48.148;-1.786;2023-07-31T01:09:59;16.67;;;6.67;;
16975;SDS011;8604;48.148;-1.786;2023-07-31T01:12:32;18.43;;;6.97;;
16975;SDS011;8604;48.148;-1.786;2023-07-31T01:15:04;18.30;;;6.63;;
16975;SDS011;8604;48.148;-1.786;2023-07-31T01:17:38;13.87;;;6.30;;
16975;SDS011;8604;48.148;-1.786;2023-07-31T01:20:08;15.30;;;6.50;;
16975;SDS011;8604;48.148;-1.786;2023-07-31T01:22:41;17.50;;;7.00;;
16975;SDS011;8604;48.148;-1.786;2023-07-31T01:25:29;19.23;;;6.77;;
16975;SDS011;8604;48.148;-1.786;2023-07-31T01:28:25;16.83;;;6.60;;
16975;SDS011;8604;48.148;-1.786;2023-07-31T01:30:58;16.00;;;6.70;;
16975;SDS011;8604;48.148;-1.786;2023-07-31T01:33:30;14.93;;;6.40;;
16975;SDS011;8604;48.148;-1.786;2023-07-31T01:35:59;16.30;;;6.63;;
16975;SDS011;8604;48.148;-1.786;2023-07-31T01:38:27;16.20;;;7.00;;
16975;SDS011;8604;48.148;-1.786;2023-07-31T01:40:57;13.20;;;6.70;;
16975;SDS011;8604;48.148;-1.786;2023-07-31T01:43:25;16.07;;;6.47;;
16975;SDS011;8604;48.148;-1.786;2023-07-31T01:45:55;14.87;;;6.70;;
16975;SDS011;8604;48.148;-1.786;2023-07-31T01:48:23;14.53;;;6.60;;
16975;SDS011;8604;48.148;-1.786;2023-07-31T01:50:51;14.80;;;6.30;;
16975;SDS011;8604;48.148;-1.786;2023-07-31T01:53:20;15.13;;;6.57;;
16975;SDS011;8604;48.148;-1.786;2023-07-31T01:55:49;14.17;;;6.27;;
16975;SDS011;8604;48.148;-1.786;2023-07-31T01:58:18;13.43;;;6.13;;
16975;SDS011;8604;48.148;-1.786;2023-07-31T02:00:47;17.40;;;6.10;;
16975;SDS011;8604;48.148;-1.786;2023-07-31T02:03:15;15.93;;;7.00;;
16975;SDS011;8604;48.148;-1.786;2023-07-31T02:05:44;14.70;;;5.93;;
16975;SDS011;8604;48.148;-1.786;2023-07-31T02:08:12;16.17;;;6.33;;
16975;SDS011;8604;48.148;-1.786;2023-07-31T02:10:41;15.90;;;7.13;;
16975;SDS011;8604;48.148;-1.786;2023-07-31T02:13:10;16.97;;;6.43;;
16975;SDS011;8604;48.148;-1.786;2023-07-31T02:15:39;15.90;;;5.77;;
16975;SDS011;8604;48.148;-1.786;2023-07-31T02:18:08;14.83;;;6.20;;
16975;SDS011;8604;48.148;-1.786;2023-07-31T02:20:37;13.90;;;6.10;;
16975;SDS011;8604;48.148;-1.786;2023-07-31T02:23:05;19.23;;;6.70;;
16975;SDS011;8604;48.148;-1.786;2023-07-31T02:25:33;18.03;;;6.50;;
16975;SDS011;8604;48.148;-1.786;2023-07-31T02:28:03;19.00;;;6.77;;
16975;SDS011;8604;48.148;-1.786;2023-07-31T02:30:32;14.00;;;6.40;;
16975;SDS011;8604;48.148;-1.786;2023-07-31T02:33:01;14.47;;;6.20;;
16975;SDS011;8604;48.148;-1.786;2023-07-31T02:35:30;17.13;;;6.57;;
16975;SDS011;8604;48.148;-1.786;2023-07-31T02:37:59;16.07;;;6.53;;
16975;SDS011;8604;48.148;-1.786;2023-07-31T02:40:27;19.13;;;7.07;;
16975;SDS011;8604;48.148;-1.786;2023-07-31T02:42:55;15.30;;;6.60;;
16975;SDS011;8604;48.148;-1.786;2023-07-31T02:45:23;15.87;;;6.17;;
16975;SDS011;8604;48.148;-1.786;2023-07-31T02:47:52;15.47;;;6.40;;
16975;SDS011;8604;48.148;-1.786;2023-07-31T02:50:22;16.43;;;5.73;;
16975;SDS011;8604;48.148;-1.786;2023-07-31T02:52:50;16.57;;;6.40;;
16975;SDS011;8604;48.148;-1.786;2023-07-31T02:55:18;16.97;;;6.60;;
16975;SDS011;8604;48.148;-1.786;2023-07-31T02:57:47;15.33;;;6.03;;
16975;SDS011;8604;48.148;-1.786;2023-07-31T03:00:15;12.97;;;6.30;;
16975;SDS011;8604;48.148;-1.786;2023-07-31T03:02:43;17.27;;;7.00;;
16975;SDS011;8604;48.148;-1.786;2023-07-31T03:05:12;16.87;;;6.27;;
16975;SDS011;8604;48.148;-1.786;2023-07-31T03:07:41;13.13;;;5.70;;
16975;SDS011;8604;48.148;-1.786;2023-07-31T03:10:10;17.23;;;6.80;;
16975;SDS011;8604;48.148;-1.786;2023-07-31T03:12:38;15.93;;;6.30;;
16975;SDS011;8604;48.148;-1.786;2023-07-31T03:15:08;15.37;;;6.60;;
16975;SDS011;8604;48.148;-1.786;2023-07-31T03:17:36;17.80;;;6.33;;
16975;SDS011;8604;48.148;-1.786;2023-07-31T03:20:05;15.43;;;5.93;;
16975;SDS011;8604;48.148;-1.786;2023-07-31T03:22:35;18.17;;;6.43;;
16975;SDS011;8604;48.148;-1.786;2023-07-31T03:25:06;12.30;;;5.60;;
16975;SDS011;8604;48.148;-1.786;2023-07-31T03:27:36;17.13;;;6.23;;
16975;SDS011;8604;48.148;-1.786;2023-07-31T03:30:05;13.63;;;6.23;;
16975;SDS011;8604;48.148;-1.786;2023-07-31T03:32:35;14.70;;;5.90;;
16975;SDS011;8604;48.148;-1.786;2023-07-31T03:35:04;13.20;;;5.87;;
16975;SDS011;8604;48.148;-1.786;2023-07-31T03:37:33;18.03;;;6.13;;
16975;SDS011;8604;48.148;-1.786;2023-07-31T03:40:02;13.17;;;5.97;;
16975;SDS011;8604;48.148;-1.786;2023-07-31T03:42:32;14.80;;;6.20;;
16975;SDS011;8604;48.148;-1.786;2023-07-31T03:45:01;14.40;;;5.90;;
16975;SDS011;8604;48.148;-1.786;2023-07-31T03:47:30;14.43;;;5.90;;
16975;SDS011;8604;48.148;-1.786;2023-07-31T03:49:58;14.57;;;5.87;;
16975;SDS011;8604;48.148;-1.786;2023-07-31T03:52:26;14.07;;;6.10;;
16975;SDS011;8604;48.148;-1.786;2023-07-31T03:54:55;15.10;;;6.00;;
16975;SDS011;8604;48.148;-1.786;2023-07-31T03:57:23;12.40;;;5.40;;
16975;SDS011;8604;48.148;-1.786;2023-07-31T03:59:53;13.60;;;5.50;;
16975;SDS011;8604;48.148;-1.786;2023-07-31T04:02:21;14.37;;;5.80;;
16975;SDS011;8604;48.148;-1.786;2023-07-31T04:04:49;15.10;;;6.10;;
16975;SDS011;8604;48.148;-1.786;2023-07-31T04:07:18;16.27;;;5.90;;
16975;SDS011;8604;48.148;-1.786;2023-07-31T04:09:46;12.80;;;5.60;;
16975;SDS011;8604;48.148;-1.786;2023-07-31T04:12:14;15.70;;;6.03;;
16975;SDS011;8604;48.148;-1.786;2023-07-31T04:14:43;13.90;;;6.13;;
16975;SDS011;8604;48.148;-1.786;2023-07-31T04:17:12;11.93;;;5.40;;
16975;SDS011;8604;48.148;-1.786;2023-07-31T04:19:41;18.57;;;6.67;;
16975;SDS011;8604;48.148;-1.786;2023-07-31T04:22:09;15.87;;;6.37;;
16975;SDS011;8604;48.148;-1.786;2023-07-31T04:24:37;16.97;;;6.23;;
16975;SDS011;8604;48.148;-1.786;2023-07-31T04:27:06;16.57;;;6.10;;
16975;SDS011;8604;48.148;-1.786;2023-07-31T04:29:34;15.50;;;5.80;;
16975;SDS011;8604;48.148;-1.786;2023-07-31T04:32:02;14.03;;;5.50;;
16975;SDS011;8604;48.148;-1.786;2023-07-31T04:34:32;11.67;;;5.43;;
16975;SDS011;8604;48.148;-1.786;2023-07-31T04:37:01;17.43;;;5.90;;
16975;SDS011;8604;48.148;-1.786;2023-07-31T04:39:29;14.33;;;5.90;;
16975;SDS011;8604;48.148;-1.786;2023-07-31T04:41:58;16.60;;;6.57;;
16975;SDS011;8604;48.148;-1.786;2023-07-31T04:44:26;16.53;;;6.07;;
16975;SDS011;8604;48.148;-1.786;2023-07-31T04:46:54;16.10;;;6.07;;
16975;SDS011;8604;48.148;-1.786;2023-07-31T04:49:23;17.60;;;6.00;;
16975;SDS011;8604;48.148;-1.786;2023-07-31T04:51:52;13.73;;;5.47;;
16975;SDS011;8604;48.148;-1.786;2023-07-31T04:54:21;14.23;;;5.80;;
16975;SDS011;8604;48.148;-1.786;2023-07-31T04:56:52;14.47;;;6.13;;
16975;SDS011;8604;48.148;-1.786;2023-07-31T04:59:21;18.03;;;6.20;;
16975;SDS011;8604;48.148;-1.786;2023-07-31T05:01:49;17.23;;;5.83;;
16975;SDS011;8604;48.148;-1.786;2023-07-31T05:04:18;12.83;;;6.07;;
16975;SDS011;8604;48.148;-1.786;2023-07-31T05:06:46;13.17;;;5.53;;
16975;SDS011;8604;48.148;-1.786;2023-07-31T05:09:16;13.90;;;5.70;;
16975;SDS011;8604;48.148;-1.786;2023-07-31T05:11:44;15.13;;;6.10;;
16975;SDS011;8604;48.148;-1.786;2023-07-31T05:14:13;11.87;;;5.10;;
16975;SDS011;8604;48.148;-1.786;2023-07-31T05:16:42;14.03;;;5.43;;
16975;SDS011;8604;48.148;-1.786;2023-07-31T05:19:10;13.27;;;5.37;;
16975;SDS011;8604;48.148;-1.786;2023-07-31T05:21:39;13.50;;;5.60;;
16975;SDS011;8604;48.148;-1.786;2023-07-31T05:24:07;15.70;;;5.90;;
16975;SDS011;8604;48.148;-1.786;2023-07-31T05:26:37;11.87;;;5.30;;
16975;SDS011;8604;48.148;-1.786;2023-07-31T05:29:05;14.57;;;5.50;;
16975;SDS011;8604;48.148;-1.786;2023-07-31T05:31:34;17.27;;;5.77;;
16975;SDS011;8604;48.148;-1.786;2023-07-31T05:34:02;13.23;;;5.00;;
16975;SDS011;8604;48.148;-1.786;2023-07-31T05:36:31;11.17;;;4.80;;
16975;SDS011;8604;48.148;-1.786;2023-07-31T05:38:59;13.77;;;5.47;;
16975;SDS011;8604;48.148;-1.786;2023-07-31T05:41:32;12.07;;;5.03;;
16975;SDS011;8604;48.148;-1.786;2023-07-31T05:44:02;13.43;;;5.37;;
16975;SDS011;8604;48.148;-1.786;2023-07-31T05:46:31;10.90;;;5.37;;
16975;SDS011;8604;48.148;-1.786;2023-07-31T05:49:00;14.37;;;5.40;;
16975;SDS011;8604;48.148;-1.786;2023-07-31T05:51:28;12.43;;;5.10;;
16975;SDS011;8604;48.148;-1.786;2023-07-31T05:54:01;14.43;;;5.33;;
16975;SDS011;8604;48.148;-1.786;2023-07-31T05:56:38;14.13;;;5.30;;
16975;SDS011;8604;48.148;-1.786;2023-07-31T05:59:12;13.13;;;5.17;;
16975;SDS011;8604;48.148;-1.786;2023-07-31T06:02:13;13.10;;;5.43;;
16975;SDS011;8604;48.148;-1.786;2023-07-31T06:04:56;13.60;;;4.80;;
16975;SDS011;8604;48.148;-1.786;2023-07-31T06:07:33;12.70;;;4.90;;
16975;SDS011;8604;48.148;-1.786;2023-07-31T06:10:10;13.83;;;4.80;;
16975;SDS011;8604;48.148;-1.786;2023-07-31T06:13:06;10.93;;;4.60;;
16975;SDS011;8604;48.148;-1.786;2023-07-31T06:15:50;11.97;;;4.57;;
16975;SDS011;8604;48.148;-1.786;2023-07-31T06:19:11;15.23;;;4.50;;
16975;SDS011;8604;48.148;-1.786;2023-07-31T06:21:50;12.10;;;4.50;;
16975;SDS011;8604;48.148;-1.786;2023-07-31T06:24:33;10.23;;;4.13;;
16975;SDS011;8604;48.148;-1.786;2023-07-31T06:27:07;12.47;;;4.50;;
16975;SDS011;8604;48.148;-1.786;2023-07-31T06:29:35;12.57;;;4.70;;
16975;SDS011;8604;48.148;-1.786;2023-07-31T06:32:09;10.57;;;3.93;;
16975;SDS011;8604;48.148;-1.786;2023-07-31T06:34:48;12.47;;;4.70;;
16975;SDS011;8604;48.148;-1.786;2023-07-31T06:37:50;12.83;;;4.37;;
16975;SDS011;8604;48.148;-1.786;2023-07-31T06:40:32;10.97;;;4.20;;
16975;SDS011;8604;48.148;-1.786;2023-07-31T06:43:10;12.97;;;4.40;;
16975;SDS011;8604;48.148;-1.786;2023-07-31T06:45:46;9.50;;;3.90;;
16975;SDS011;8604;48.148;-1.786;2023-07-31T06:48:27;10.03;;;4.00;;
16975;SDS011;8604;48.148;-1.786;2023-07-31T06:50:56;10.57;;;3.97;;
16975;SDS011;8604;48.148;-1.786;2023-07-31T06:53:24;11.70;;;4.10;;
16975;SDS011;8604;48.148;-1.786;2023-07-31T06:55:53;11.17;;;3.93;;
16975;SDS011;8604;48.148;-1.786;2023-07-31T06:58:21;9.00;;;3.60;;
16975;SDS011;8604;48.148;-1.786;2023-07-31T07:00:49;13.40;;;4.30;;
16975;SDS011;8604;48.148;-1.786;2023-07-31T07:03:18;11.00;;;3.83;;
16975;SDS011;8604;48.148;-1.786;2023-07-31T07:05:48;9.07;;;3.80;;
16975;SDS011;8604;48.148;-1.786;2023-07-31T07:08:16;12.70;;;4.20;;
16975;SDS011;8604;48.148;-1.786;2023-07-31T07:10:45;10.70;;;3.77;;
16975;SDS011;8604;48.148;-1.786;2023-07-31T07:13:14;12.97;;;4.40;;
16975;SDS011;8604;48.148;-1.786;2023-07-31T07:15:43;8.87;;;3.50;;
16975;SDS011;8604;48.148;-1.786;2023-07-31T07:18:11;11.53;;;4.10;;
16975;SDS011;8604;48.148;-1.786;2023-07-31T07:20:41;11.73;;;4.50;;
16975;SDS011;8604;48.148;-1.786;2023-07-31T07:23:17;10.03;;;3.90;;
16975;SDS011;8604;48.148;-1.786;2023-07-31T07:25:46;11.83;;;3.70;;
16975;SDS011;8604;48.148;-1.786;2023-07-31T07:28:15;9.30;;;4.13;;
16975;SDS011;8604;48.148;-1.786;2023-07-31T07:30:43;10.47;;;4.40;;
16975;SDS011;8604;48.148;-1.786;2023-07-31T07:33:11;9.80;;;4.13;;
16975;SDS011;8604;48.148;-1.786;2023-07-31T07:35:40;13.20;;;4.00;;
16975;SDS011;8604;48.148;-1.786;2023-07-31T07:38:09;9.03;;;3.50;;
16975;SDS011;8604;48.148;-1.786;2023-07-31T07:40:38;9.87;;;3.60;;
16975;SDS011;8604;48.148;-1.786;2023-07-31T07:43:07;7.80;;;3.57;;
16975;SDS011;8604;48.148;-1.786;2023-07-31T07:45:36;9.50;;;3.27;;
16975;SDS011;8604;48.148;-1.786;2023-07-31T07:48:06;9.63;;;3.40;;
16975;SDS011;8604;48.148;-1.786;2023-07-31T07:50:40;11.57;;;4.33;;
16975;SDS011;8604;48.148;-1.786;2023-07-31T07:53:10;10.30;;;3.60;;
16975;SDS011;8604;48.148;-1.786;2023-07-31T07:55:38;10.90;;;3.70;;
16975;SDS011;8604;48.148;-1.786;2023-07-31T07:58:07;12.10;;;4.10;;
16975;SDS011;8604;48.148;-1.786;2023-07-31T08:00:36;9.37;;;3.57;;
16975;SDS011;8604;48.148;-1.786;2023-07-31T08:03:08;7.67;;;3.50;;
16975;SDS011;8604;48.148;-1.786;2023-07-31T08:05:45;7.73;;;3.17;;
16975;SDS011;8604;48.148;-1.786;2023-07-31T08:08:49;9.27;;;3.43;;
16975;SDS011;8604;48.148;-1.786;2023-07-31T08:11:29;9.23;;;3.70;;
16975;SDS011;8604;48.148;-1.786;2023-07-31T08:13:57;8.50;;;3.40;;
16975;SDS011;8604;48.148;-1.786;2023-07-31T08:16:26;6.97;;;3.33;;
16975;SDS011;8604;48.148;-1.786;2023-07-31T08:18:54;9.67;;;3.10;;
16975;SDS011;8604;48.148;-1.786;2023-07-31T08:21:23;9.27;;;3.20;;
16975;SDS011;8604;48.148;-1.786;2023-07-31T08:23:53;9.37;;;3.13;;
16975;SDS011;8604;48.148;-1.786;2023-07-31T08:26:22;10.57;;;3.40;;
16975;SDS011;8604;48.148;-1.786;2023-07-31T08:28:50;8.90;;;3.37;;
16975;SDS011;8604;48.148;-1.786;2023-07-31T08:31:18;8.03;;;3.20;;
16975;SDS011;8604;48.148;-1.786;2023-07-31T08:33:47;5.87;;;2.70;;
16975;SDS011;8604;48.148;-1.786;2023-07-31T08:36:15;5.83;;;2.57;;
16975;SDS011;8604;48.148;-1.786;2023-07-31T08:38:44;6.53;;;3.00;;
16975;SDS011;8604;48.148;-1.786;2023-07-31T08:41:14;8.07;;;2.93;;
16975;SDS011;8604;48.148;-1.786;2023-07-31T08:43:44;6.10;;;2.80;;
16975;SDS011;8604;48.148;-1.786;2023-07-31T08:46:13;7.23;;;2.70;;
16975;SDS011;8604;48.148;-1.786;2023-07-31T08:48:42;8.37;;;3.00;;
16975;SDS011;8604;48.148;-1.786;2023-07-31T08:51:13;6.77;;;2.83;;
16975;SDS011;8604;48.148;-1.786;2023-07-31T08:53:42;5.97;;;2.63;;
16975;SDS011;8604;48.148;-1.786;2023-07-31T08:56:10;5.80;;;2.80;;
16975;SDS011;8604;48.148;-1.786;2023-07-31T08:58:43;6.43;;;2.90;;
16975;SDS011;8604;48.148;-1.786;2023-07-31T09:01:13;7.50;;;3.23;;
16975;SDS011;8604;48.148;-1.786;2023-07-31T09:03:42;5.87;;;2.80;;
16975;SDS011;8604;48.148;-1.786;2023-07-31T09:06:13;6.67;;;3.00;;
16975;SDS011;8604;48.148;-1.786;2023-07-31T09:08:45;7.63;;;3.30;;
16975;SDS011;8604;48.148;-1.786;2023-07-31T09:11:14;7.10;;;3.10;;
16975;SDS011;8604;48.148;-1.786;2023-07-31T09:13:44;6.97;;;3.30;;
16975;SDS011;8604;48.148;-1.786;2023-07-31T09:16:14;7.97;;;3.30;;
16975;SDS011;8604;48.148;-1.786;2023-07-31T09:18:52;8.33;;;3.40;;
16975;SDS011;8604;48.148;-1.786;2023-07-31T09:21:23;7.93;;;3.07;;
16975;SDS011;8604;48.148;-1.786;2023-07-31T09:23:54;7.63;;;3.67;;
16975;SDS011;8604;48.148;-1.786;2023-07-31T09:26:29;6.43;;;3.57;;
16975;SDS011;8604;48.148;-1.786;2023-07-31T09:29:01;7.87;;;3.60;;
16975;SDS011;8604;48.148;-1.786;2023-07-31T09:31:38;9.63;;;3.87;;
16975;SDS011;8604;48.148;-1.786;2023-07-31T09:34:08;10.20;;;3.90;;
16975;SDS011;8604;48.148;-1.786;2023-07-31T09:36:41;8.93;;;4.00;;
16975;SDS011;8604;48.148;-1.786;2023-07-31T09:39:10;6.47;;;3.40;;
16975;SDS011;8604;48.148;-1.786;2023-07-31T09:41:40;9.03;;;4.40;;
16975;SDS011;8604;48.148;-1.786;2023-07-31T09:44:11;8.40;;;3.93;;
16975;SDS011;8604;48.148;-1.786;2023-07-31T09:46:40;11.30;;;4.40;;
16975;SDS011;8604;48.148;-1.786;2023-07-31T09:49:10;10.93;;;4.67;;
16975;SDS011;8604;48.148;-1.786;2023-07-31T09:51:40;12.20;;;4.60;;
16975;SDS011;8604;48.148;-1.786;2023-07-31T09:54:09;8.93;;;4.37;;
16975;SDS011;8604;48.148;-1.786;2023-07-31T09:56:41;9.57;;;4.80;;
16975;SDS011;8604;48.148;-1.786;2023-07-31T09:59:13;9.03;;;4.37;;
16975;SDS011;8604;48.148;-1.786;2023-07-31T10:01:43;10.07;;;4.00;;
16975;SDS011;8604;48.148;-1.786;2023-07-31T10:04:13;9.97;;;4.57;;
16975;SDS011;8604;48.148;-1.786;2023-07-31T10:06:42;11.57;;;4.50;;
16975;SDS011;8604;48.148;-1.786;2023-07-31T10:09:13;9.90;;;4.70;;
16975;SDS011;8604;48.148;-1.786;2023-07-31T10:11:46;11.63;;;4.93;;
16975;SDS011;8604;48.148;-1.786;2023-07-31T10:14:21;9.50;;;4.40;;
16975;SDS011;8604;48.148;-1.786;2023-07-31T10:16:51;10.17;;;4.60;;
16975;SDS011;8604;48.148;-1.786;2023-07-31T10:19:21;12.27;;;5.00;;
16975;SDS011;8604;48.148;-1.786;2023-07-31T10:21:49;9.90;;;4.40;;
16975;SDS011;8604;48.148;-1.786;2023-07-31T10:24:18;11.67;;;5.17;;
16975;SDS011;8604;48.148;-1.786;2023-07-31T10:26:47;11.63;;;5.17;;
16975;SDS011;8604;48.148;-1.786;2023-07-31T10:29:20;11.57;;;5.03;;
16975;SDS011;8604;48.148;-1.786;2023-07-31T10:31:51;9.47;;;4.67;;
16975;SDS011;8604;48.148;-1.786;2023-07-31T10:34:20;8.77;;;4.43;;
16975;SDS011;8604;48.148;-1.786;2023-07-31T10:41:16;11.37;;;5.30;;
16975;SDS011;8604;48.148;-1.786;2023-07-31T10:43:46;12.83;;;5.53;;
16975;SDS011;8604;48.148;-1.786;2023-07-31T10:46:16;11.73;;;5.23;;
16975;SDS011;8604;48.148;-1.786;2023-07-31T10:48:45;13.20;;;5.13;;
16975;SDS011;8604;48.148;-1.786;2023-07-31T10:51:26;9.23;;;4.30;;
16975;SDS011;8604;48.148;-1.786;2023-07-31T10:54:11;12.50;;;4.63;;
16975;SDS011;8604;48.148;-1.786;2023-07-31T10:56:44;12.90;;;4.47;;
16975;SDS011;8604;48.148;-1.786;2023-07-31T10:59:12;8.47;;;4.30;;
16975;SDS011;8604;48.148;-1.786;2023-07-31T11:01:51;8.17;;;4.10;;
16975;SDS011;8604;48.148;-1.786;2023-07-31T11:04:22;9.70;;;4.40;;
16975;SDS011;8604;48.148;-1.786;2023-07-31T11:06:58;10.27;;;4.60;;
16975;SDS011;8604;48.148;-1.786;2023-07-31T11:09:28;8.00;;;3.93;;
16975;SDS011;8604;48.148;-1.786;2023-07-31T11:11:58;7.70;;;3.93;;
16975;SDS011;8604;48.148;-1.786;2023-07-31T11:14:28;9.03;;;4.00;;
16975;SDS011;8604;48.148;-1.786;2023-07-31T11:16:58;9.33;;;4.23;;
16975;SDS011;8604;48.148;-1.786;2023-07-31T11:19:27;7.70;;;4.10;;
16975;SDS011;8604;48.148;-1.786;2023-07-31T11:21:55;8.37;;;3.90;;
16975;SDS011;8604;48.148;-1.786;2023-07-31T11:24:26;8.20;;;4.30;;
16975;SDS011;8604;48.148;-1.786;2023-07-31T11:26:55;9.83;;;4.40;;
16975;SDS011;8604;48.148;-1.786;2023-07-31T11:29:25;9.27;;;4.10;;
16975;SDS011;8604;48.148;-1.786;2023-07-31T11:31:55;8.77;;;4.10;;
16975;SDS011;8604;48.148;-1.786;2023-07-31T11:34:25;8.87;;;4.10;;
16975;SDS011;8604;48.148;-1.786;2023-07-31T11:36:55;9.77;;;4.23;;
16975;SDS011;8604;48.148;-1.786;2023-07-31T11:39:26;9.87;;;4.07;;
16975;SDS011;8604;48.148;-1.786;2023-07-31T11:41:58;8.07;;;3.87;;
16975;SDS011;8604;48.148;-1.786;2023-07-31T11:44:36;8.27;;;4.10;;
16975;SDS011;8604;48.148;-1.786;2023-07-31T11:47:07;8.37;;;4.17;;
16975;SDS011;8604;48.148;-1.786;2023-07-31T11:49:36;9.33;;;3.73;;
16975;SDS011;8604;48.148;-1.786;2023-07-31T11:52:05;8.33;;;4.03;;
16975;SDS011;8604;48.148;-1.786;2023-07-31T11:54:34;8.53;;;4.03;;
16975;SDS011;8604;48.148;-1.786;2023-07-31T11:57:03;9.23;;;4.13;;
16975;SDS011;8604;48.148;-1.786;2023-07-31T11:59:33;8.90;;;4.50;;
16975;SDS011;8604;48.148;-1.786;2023-07-31T12:02:02;8.23;;;4.40;;
16975;SDS011;8604;48.148;-1.786;2023-07-31T12:04:33;7.53;;;4.30;;
16975;SDS011;8604;48.148;-1.786;2023-07-31T12:07:05;9.17;;;4.47;;
16975;SDS011;8604;48.148;-1.786;2023-07-31T12:09:34;7.67;;;4.27;;
16975;SDS011;8604;48.148;-1.786;2023-07-31T12:12:03;9.37;;;4.67;;
16975;SDS011;8604;48.148;-1.786;2023-07-31T12:14:36;8.80;;;4.50;;
16975;SDS011;8604;48.148;-1.786;2023-07-31T12:17:09;8.30;;;4.30;;
16975;SDS011;8604;48.148;-1.786;2023-07-31T12:19:40;9.43;;;4.23;;
16975;SDS011;8604;48.148;-1.786;2023-07-31T12:22:12;8.27;;;3.90;;
16975;SDS011;8604;48.148;-1.786;2023-07-31T12:24:41;10.07;;;4.27;;
16975;SDS011;8604;48.148;-1.786;2023-07-31T12:27:12;7.57;;;4.10;;
16975;SDS011;8604;48.148;-1.786;2023-07-31T12:29:44;9.23;;;4.00;;
16975;SDS011;8604;48.148;-1.786;2023-07-31T12:32:20;6.53;;;3.60;;
16975;SDS011;8604;48.148;-1.786;2023-07-31T12:34:50;8.17;;;3.70;;
16975;SDS011;8604;48.148;-1.786;2023-07-31T12:37:20;5.83;;;3.00;;
16975;SDS011;8604;48.148;-1.786;2023-07-31T12:39:48;6.10;;;2.80;;
16975;SDS011;8604;48.148;-1.786;2023-07-31T12:42:17;6.00;;;2.70;;
16975;SDS011;8604;48.148;-1.786;2023-07-31T12:44:46;5.17;;;2.70;;
16975;SDS011;8604;48.148;-1.786;2023-07-31T12:47:14;5.30;;;2.70;;
16975;SDS011;8604;48.148;-1.786;2023-07-31T12:49:43;5.33;;;2.40;;
16975;SDS011;8604;48.148;-1.786;2023-07-31T12:52:13;4.77;;;2.53;;
16975;SDS011;8604;48.148;-1.786;2023-07-31T12:54:42;5.43;;;2.43;;
16975;SDS011;8604;48.148;-1.786;2023-07-31T12:57:10;3.23;;;2.30;;
16975;SDS011;8604;48.148;-1.786;2023-07-31T12:59:39;6.43;;;2.63;;
16975;SDS011;8604;48.148;-1.786;2023-07-31T13:02:07;4.43;;;2.10;;
16975;SDS011;8604;48.148;-1.786;2023-07-31T13:04:36;3.90;;;1.90;;
16975;SDS011;8604;48.148;-1.786;2023-07-31T13:07:05;4.00;;;2.20;;
16975;SDS011;8604;48.148;-1.786;2023-07-31T13:09:35;3.57;;;1.93;;
16975;SDS011;8604;48.148;-1.786;2023-07-31T13:12:03;3.10;;;1.80;;
16975;SDS011;8604;48.148;-1.786;2023-07-31T13:14:32;4.37;;;1.87;;
16975;SDS011;8604;48.148;-1.786;2023-07-31T13:17:01;5.87;;;2.20;;
16975;SDS011;8604;48.148;-1.786;2023-07-31T13:19:30;2.93;;;2.03;;
16975;SDS011;8604;48.148;-1.786;2023-07-31T13:21:58;3.43;;;1.80;;
16975;SDS011;8604;48.148;-1.786;2023-07-31T13:24:27;3.07;;;1.87;;
16975;SDS011;8604;48.148;-1.786;2023-07-31T13:26:57;2.87;;;1.73;;
16975;SDS011;8604;48.148;-1.786;2023-07-31T13:29:25;3.83;;;1.93;;
16975;SDS011;8604;48.148;-1.786;2023-07-31T13:31:54;4.00;;;1.83;;
16975;SDS011;8604;48.148;-1.786;2023-07-31T13:34:22;5.50;;;2.13;;
16975;SDS011;8604;48.148;-1.786;2023-07-31T13:36:51;2.90;;;1.80;;
16975;SDS011;8604;48.148;-1.786;2023-07-31T13:39:21;4.67;;;1.90;;
16975;SDS011;8604;48.148;-1.786;2023-07-31T13:41:50;3.97;;;1.80;;
16975;SDS011;8604;48.148;-1.786;2023-07-31T13:44:20;5.27;;;1.70;;
16975;SDS011;8604;48.148;-1.786;2023-07-31T13:46:49;3.00;;;1.87;;
16975;SDS011;8604;48.148;-1.786;2023-07-31T13:49:17;2.87;;;1.63;;
16975;SDS011;8604;48.148;-1.786;2023-07-31T13:51:46;9.57;;;2.20;;
16975;SDS011;8604;48.148;-1.786;2023-07-31T13:54:15;4.87;;;1.90;;
16975;SDS011;8604;48.148;-1.786;2023-07-31T13:58:13;5.40;;;2.00;;
16975;SDS011;8604;48.148;-1.786;2023-07-31T14:04:10;5.70;;;1.57;;
16975;SDS011;8604;48.148;-1.786;2023-07-31T14:07:17;3.83;;;1.53;;
16975;SDS011;8604;48.148;-1.786;2023-07-31T14:33:03;4.50;;;1.70;;
16975;SDS011;8604;48.148;-1.786;2023-07-31T14:35:50;4.43;;;1.50;;
16975;SDS011;8604;48.148;-1.786;2023-07-31T14:38:27;3.07;;;1.60;;
16975;SDS011;8604;48.148;-1.786;2023-07-31T14:41:01;3.20;;;1.70;;
16975;SDS011;8604;48.148;-1.786;2023-07-31T14:43:34;4.70;;;1.83;;
16975;SDS011;8604;48.148;-1.786;2023-07-31T14:46:14;4.70;;;1.80;;
16975;SDS011;8604;48.148;-1.786;2023-07-31T14:49:32;3.53;;;1.50;;
16975;SDS011;8604;48.148;-1.786;2023-07-31T14:53:17;3.33;;;1.70;;
16975;SDS011;8604;48.148;-1.786;2023-07-31T14:56:27;3.53;;;1.60;;
16975;SDS011;8604;48.148;-1.786;2023-07-31T14:59:26;4.70;;;1.57;;
16975;SDS011;8604;48.148;-1.786;2023-07-31T15:02:18;3.40;;;1.30;;
16975;SDS011;8604;48.148;-1.786;2023-07-31T15:05:18;5.67;;;1.60;;
16975;SDS011;8604;48.148;-1.786;2023-07-31T15:07:55;4.33;;;1.50;;
16975;SDS011;8604;48.148;-1.786;2023-07-31T15:10:29;3.60;;;1.50;;
16975;SDS011;8604;48.148;-1.786;2023-07-31T15:12:59;3.43;;;1.60;;
16975;SDS011;8604;48.148;-1.786;2023-07-31T15:23:42;3.77;;;1.43;;
16975;SDS011;8604;48.148;-1.786;2023-07-31T15:26:14;5.03;;;1.67;;
16975;SDS011;8604;48.148;-1.786;2023-07-31T15:28:48;3.40;;;1.40;;
16975;SDS011;8604;48.148;-1.786;2023-07-31T15:31:18;3.37;;;1.50;;
16975;SDS011;8604;48.148;-1.786;2023-07-31T15:33:46;3.57;;;1.50;;
16975;SDS011;8604;48.148;-1.786;2023-07-31T15:36:15;4.10;;;1.40;;
16975;SDS011;8604;48.148;-1.786;2023-07-31T15:38:46;3.83;;;1.60;;
16975;SDS011;8604;48.148;-1.786;2023-07-31T15:41:17;4.17;;;1.67;;
16975;SDS011;8604;48.148;-1.786;2023-07-31T15:43:48;4.30;;;1.67;;
16975;SDS011;8604;48.148;-1.786;2023-07-31T15:46:20;3.70;;;1.80;;